Time;durP1;ratioP1;P1;durP2;ratioP2;P2;SDS_P1;SDS_P2;PMS_P1;PMS_P2;Temp;Humidity;BMP_temperature;BMP_pressure;BME280_temperature;BME280_humidity;BME280_pressure;Samples;Min_cycle;Max_cycle;Signal;HPM_P1;HPM_P2
2024/03/09 00:00:54;;;;;;;;;;;;;;;11.19;67.15;100423.72;5046797;28;19912;-82
2024/03/09 00:03:46;;;;;;;;;;;;;;;11.20;67.42;100426.09;5073135;28;19916;-82
2024/03/09 00:06:35;;;;;;;;;;;;;;;11.16;67.67;100427.88;5048207;28;20369;-82
2024/03/09 00:09:27;;;;;;;;;;;;;;;11.19;67.48;100420.97;5048629;28;19912;-81
2024/03/09 00:12:19;;;;;;;;;;;;;;;11.21;67.54;100422.28;5063774;28;19912;-82
2024/03/09 00:15:12;;;;;;;;;;;;;;;11.21;67.31;100419.56;5088277;28;20377;-82
2024/03/09 00:18:04;;;;;;;;;;;;;;;11.22;67.35;100421.16;5099745;28;19912;-81
2024/03/09 00:20:56;;;;;;;;;;;;;;;11.22;67.11;100417.63;5089745;28;19911;-82
2024/03/09 00:23:50;;;;;;;;;;;;;;;11.26;67.08;100411.19;5098613;28;19915;-82
2024/03/09 00:26:42;;;;;;;;;;;;;;;11.26;66.99;100407.69;5098514;28;20376;-81
2024/03/09 00:29:32;;;;;;;;;;;;;;;11.25;66.73;100406.88;5103961;28;19916;-81
2024/03/09 00:32:24;;;;;;;;;;;;;;;11.27;66.32;100403.84;5045591;28;19912;-81
2024/03/09 00:35:13;;;;;;;;;;;;;;;11.24;66.43;100399.03;5043383;28;19916;-80
2024/03/09 00:38:05;;;;;;;;;;;;;;;11.23;66.39;100398.22;5057859;28;19908;-81
2024/03/09 00:40:57;;;;;;;;;;;;;;;11.25;66.59;100384.31;5044503;28;20344;-81
2024/03/09 00:43:47;;;;;;;;;;;;;;;11.26;66.29;100380.47;5058706;28;19912;-81
2024/03/09 00:46:39;;;;;;;;;;;;;;;11.24;66.25;100371.81;5075693;28;19920;-82
2024/03/09 00:49:34;;;;;;;;;;;;;;;11.17;66.81;100371.53;5063658;28;20297;-82
2024/03/09 00:52:26;;;;;;;;;;;;;;;11.18;66.46;100373.91;5043535;28;19916;-81
2024/03/09 00:55:18;;;;;;;;;;;;;;;11.18;66.79;100367.66;5059400;28;20373;-82
2024/03/09 00:58:12;;;;;;;;;;;;;;;11.24;66.61;100377.25;5078624;28;19912;-82
2024/03/09 01:01:04;;;;;;;;;;;;;;;11.29;66.10;100372.44;5087148;28;20360;-82
2024/03/09 01:03:56;;;;;;;;;;;;;;;11.28;65.78;100368.09;5112983;28;19915;-81
2024/03/09 01:06:49;;;;;;;;;;;;;;;11.30;65.58;100346.81;5089896;28;19915;-80
2024/03/09 01:09:41;;;;;;;;;;;;;;;11.26;65.31;100345.88;5099427;28;19920;-82
2024/03/09 01:12:33;;;;;;;;;;;;;;;11.21;65.34;100345.25;5097851;28;19916;-82
2024/03/09 01:15:25;;;;;;;;;;;;;;;11.20;65.54;100354.56;5109281;28;19912;-82
2024/03/09 01:18:17;;;;;;;;;;;;;;;11.14;65.06;100354.72;5083251;28;19912;-81
2024/03/09 01:21:09;;;;;;;;;;;;;;;11.22;65.13;100353.09;5076910;28;19914;-81
2024/03/09 01:24:01;;;;;;;;;;;;;;;11.28;64.91;100340.88;5077971;28;19911;-81
2024/03/09 01:26:53;;;;;;;;;;;;;;;11.30;64.98;100340.56;5069279;28;19916;-81
2024/03/09 01:29:51;;;;;;;;;;;;;;;11.29;65.09;100339.75;5076429;28;20297;-81
2024/03/09 01:32:46;;;;;;;;;;;;;;;11.34;65.36;100319.72;5065524;28;19938;-82
2024/03/09 01:35:38;;;;;;;;;;;;;;;11.23;65.27;100308.41;5076758;28;19915;-81
2024/03/09 01:38:30;;;;;;;;;;;;;;;11.22;65.49;100309.56;5077049;28;19912;-82
2024/03/09 01:41:22;;;;;;;;;;;;;;;11.22;65.35;100309.56;5069134;28;19916;-81
2024/03/09 01:44:14;;;;;;;;;;;;;;;11.21;65.10;100304.44;5076892;28;19990;-82
2024/03/09 01:47:07;;;;;;;;;;;;;;;11.24;64.68;100299.13;5065758;28;19916;-81
2024/03/09 01:49:56;;;;;;;;;;;;;;;11.24;64.57;100290.97;5091296;28;19916;-82
2024/03/09 01:52:49;;;;;;;;;;;;;;;11.25;64.70;100298.00;5080922;28;19919;-82
2024/03/09 01:55:41;;;;;;;;;;;;;;;11.22;65.19;100301.41;5071873;28;19912;-82
2024/03/09 01:58:33;;;;;;;;;;;;;;;11.26;64.17;100301.53;5079843;28;19916;-82
2024/03/09 02:01:26;;;;;;;;;;;;;;;11.26;64.01;100298.81;5095654;28;19912;-82
2024/03/09 02:04:16;;;;;;;;;;;;;;;11.29;64.27;100296.22;5080475;28;20412;-81
2024/03/09 02:07:08;;;;;;;;;;;;;;;11.33;64.32;100288.97;5080515;28;19924;-82
2024/03/09 02:10:00;;;;;;;;;;;;;;;11.35;63.79;100294.09;5095411;28;20564;-81
2024/03/09 02:12:58;;;;;;;;;;;;;;;11.32;64.15;100289.31;5081737;28;19912;-81
2024/03/09 02:15:50;;;;;;;;;;;;;;;11.31;64.64;100290.44;5094949;28;20321;-82
2024/03/09 02:18:42;;;;;;;;;;;;;;;11.30;65.33;100288.84;5067856;28;19916;-81
2024/03/09 02:21:34;;;;;;;;;;;;;;;11.30;65.81;100291.56;5085266;28;20285;-81
2024/03/09 02:24:23;;;;;;;;;;;;;;;11.32;66.47;100295.56;5079621;28;19916;-81
2024/03/09 02:27:20;;;;;;;;;;;;;;;11.25;66.53;100292.56;5058632;28;20567;-81
2024/03/09 02:30:12;;;;;;;;;;;;;;;11.15;67.29;100293.75;5052574;28;19912;-82
2024/03/09 02:33:07;;;;;;;;;;;;;;;11.09;67.12;100284.16;5062494;28;20305;-82
2024/03/09 02:35:59;;;;;;;;;;;;;;;11.07;67.21;100289.13;5046634;28;20296;-82
2024/03/09 02:38:54;;;;;;;;;;;;;;;11.08;67.58;100288.00;5088754;28;19911;-81
2024/03/09 02:41:46;;;;;;;;;;;;;;;11.12;67.76;100288.16;5095799;28;19916;-82
2024/03/09 02:44:39;;;;;;;;;;;;;;;10.94;68.44;100282.00;5093493;28;19912;-81
2024/03/09 02:47:31;;;;;;;;;;;;;;;10.89;69.09;100286.84;5096611;28;20384;-81
2024/03/09 02:50:23;;;;;;;;;;;;;;;10.96;68.57;100296.09;5066241;28;19912;-82
2024/03/09 02:53:13;;;;;;;;;;;;;;;10.84;68.89;100303.34;5069565;28;19912;-81
2024/03/09 02:56:00;;;;;;;;;;;;;;;10.86;69.15;100292.94;5100515;28;19916;-81
2024/03/09 02:58:51;;;;;;;;;;;;;;;10.86;68.97;100293.75;5094190;28;19935;-82
2024/03/09 03:01:41;;;;;;;;;;;;;;;10.88;69.38;100288.75;5069613;28;19912;-81
2024/03/09 03:04:25;;;;;;;;;;;;;;;10.90;68.83;100296.59;5079065;28;19912;-82
2024/03/09 03:07:22;;;;;;;;;;;;;;;10.92;68.84;100280.75;5092911;28;19924;-81
2024/03/09 03:10:12;;;;;;;;;;;;;;;10.96;68.64;100274.34;5068209;28;19912;-82
2024/03/09 03:13:04;;;;;;;;;;;;;;;10.96;69.22;100281.69;5080577;28;19916;-82
2024/03/09 03:15:56;;;;;;;;;;;;;;;10.96;69.03;100278.97;5083664;28;19912;-81
2024/03/09 03:18:48;;;;;;;;;;;;;;;10.95;68.87;100283.63;5085527;28;19920;-82
2024/03/09 03:21:39;;;;;;;;;;;;;;;10.92;69.47;100292.41;5071971;28;19915;-82
2024/03/09 03:24:31;;;;;;;;;;;;;;;10.96;69.13;100282.50;5078557;28;19912;-82
2024/03/09 03:27:21;;;;;;;;;;;;;;;10.92;69.33;100289.69;5078759;28;20384;-81
2024/03/09 03:30:15;;;;;;;;;;;;;;;10.93;69.43;100287.78;5078476;28;19911;-82
2024/03/09 03:33:07;;;;;;;;;;;;;;;10.99;69.24;100283.75;5068736;28;19912;-82
2024/03/09 03:35:59;;;;;;;;;;;;;;;10.97;69.32;100286.78;5114281;28;19912;-82
2024/03/09 03:38:52;;;;;;;;;;;;;;;10.93;69.55;100280.41;5099232;28;19911;-82
2024/03/09 03:41:45;;;;;;;;;;;;;;;10.87;69.60;100279.00;5101637;28;19912;-80
2024/03/09 03:44:38;;;;;;;;;;;;;;;10.88;69.71;100283.31;5112578;28;19916;-81
2024/03/09 03:47:28;;;;;;;;;;;;;;;10.92;69.66;100278.81;5090995;28;19916;-81
2024/03/09 03:50:13;;;;;;;;;;;;;;;10.90;69.34;100281.06;5097678;28;19911;-82
2024/03/09 03:53:04;;;;;;;;;;;;;;;10.91;69.96;100282.69;5103040;28;19911;-81
2024/03/09 03:55:54;;;;;;;;;;;;;;;10.84;70.31;100287.03;5088083;28;19915;-81
2024/03/09 03:58:46;;;;;;;;;;;;;;;10.86;70.18;100293.75;5053699;28;19916;-81
2024/03/09 04:01:38;;;;;;;;;;;;;;;10.83;69.86;100301.75;5064058;28;19913;-81
2024/03/09 04:04:30;;;;;;;;;;;;;;;10.83;69.94;100286.22;5057992;28;19916;-80
2024/03/09 04:07:19;;;;;;;;;;;;;;;10.84;69.96;100276.13;5072879;28;20317;-80
2024/03/09 04:10:13;;;;;;;;;;;;;;;10.83;69.76;100272.63;5061698;28;19916;-80
2024/03/09 04:13:05;;;;;;;;;;;;;;;10.82;69.71;100267.53;5073976;28;19912;-80
2024/03/09 04:15:57;;;;;;;;;;;;;;;10.83;69.63;100279.97;5057994;28;20374;-81
2024/03/09 04:18:49;;;;;;;;;;;;;;;10.82;69.82;100284.63;5070683;28;20305;-81
2024/03/09 04:21:41;;;;;;;;;;;;;;;10.82;69.74;100290.06;5065024;28;19912;-81
2024/03/09 04:24:33;;;;;;;;;;;;;;;10.78;69.16;100280.16;5071520;28;19913;-81
2024/03/09 04:27:25;;;;;;;;;;;;;;;10.78;69.65;100280.16;5061058;28;19920;-81
2024/03/09 04:30:15;;;;;;;;;;;;;;;10.82;69.59;100279.19;5064420;28;19912;-81
2024/03/09 04:33:08;;;;;;;;;;;;;;;10.91;69.26;100271.78;5071446;28;19916;-81
2024/03/09 04:36:00;;;;;;;;;;;;;;;10.91;69.09;100274.53;5073607;28;19920;-81
2024/03/09 04:38:52;;;;;;;;;;;;;;;10.93;69.08;100276.88;5062487;28;19912;-82
2024/03/09 04:41:43;;;;;;;;;;;;;;;10.91;68.80;100279.97;5075828;28;19912;-82
2024/03/09 04:44:33;;;;;;;;;;;;;;;10.95;68.74;100271.94;5071141;28;20301;-81
2024/03/09 04:47:19;;;;;;;;;;;;;;;10.98;68.48;100265.81;5070746;28;19920;-82
2024/03/09 04:50:10;;;;;;;;;;;;;;;10.95;68.53;100261.84;5073881;28;19912;-80
2024/03/09 04:53:00;;;;;;;;;;;;;;;10.94;68.62;100264.88;5084578;28;19916;-82
2024/03/09 04:55:51;;;;;;;;;;;;;;;10.88;68.93;100256.13;5096104;28;19912;-81
2024/03/09 04:58:46;;;;;;;;;;;;;;;10.92;69.18;100257.03;5070554;28;20699;-81
2024/03/09 05:01:38;;;;;;;;;;;;;;;10.95;68.98;100269.22;5057998;28;19916;-81
2024/03/09 05:04:30;;;;;;;;;;;;;;;10.93;68.87;100269.53;5084357;28;19917;-81
2024/03/09 05:07:22;;;;;;;;;;;;;;;10.93;68.66;100269.53;5077865;28;19924;-81
2024/03/09 05:10:13;;;;;;;;;;;;;;;10.94;68.84;100271.13;5063418;28;20323;-81
2024/03/09 05:13:07;;;;;;;;;;;;;;;10.94;69.04;100271.13;5084789;28;19916;-81
2024/03/09 05:15:59;;;;;;;;;;;;;;;10.96;68.81;100271.63;5072970;28;19920;-81
2024/03/09 05:18:46;;;;;;;;;;;;;;;10.97;69.03;100262.31;5071879;28;19920;-82
2024/03/09 05:21:38;;;;;;;;;;;;;;;10.97;68.95;100262.31;5060651;28;19921;-82
2024/03/09 05:24:30;;;;;;;;;;;;;;;10.97;69.03;100254.13;5070976;28;19916;-81
2024/03/09 05:27:23;;;;;;;;;;;;;;;10.96;69.00;100254.50;5061497;28;19924;-81
2024/03/09 05:30:16;;;;;;;;;;;;;;;10.97;68.99;100262.31;5088149;28;19916;-81
2024/03/09 05:33:11;;;;;;;;;;;;;;;10.99;69.38;100262.78;5095179;28;20366;-81
2024/03/09 05:36:01;;;;;;;;;;;;;;;10.99;69.92;100267.41;5070130;28;19916;-81
2024/03/09 05:38:50;;;;;;;;;;;;;;;10.99;70.20;100264.69;5057352;28;20381;-82
2024/03/09 05:41:42;;;;;;;;;;;;;;;10.98;70.09;100260.38;5079303;28;19916;-80
2024/03/09 05:44:37;;;;;;;;;;;;;;;10.99;70.22;100259.25;5086149;28;19920;-81
2024/03/09 05:47:29;;;;;;;;;;;;;;;10.98;70.22;100260.38;5090591;28;19932;-81
2024/03/09 05:50:22;;;;;;;;;;;;;;;10.93;70.48;100253.22;5070154;28;19916;-81
2024/03/09 05:53:12;;;;;;;;;;;;;;;10.92;70.38;100262.50;5093032;28;19920;-82
2024/03/09 05:56:04;;;;;;;;;;;;;;;10.96;70.43;100260.72;5084247;28;19920;-80
2024/03/09 05:58:56;;;;;;;;;;;;;;;10.96;70.29;100266.16;5056484;28;19916;-81
2024/03/09 06:01:48;;;;;;;;;;;;;;;10.96;70.26;100255.28;5058113;28;20409;-81
2024/03/09 06:04:40;;;;;;;;;;;;;;;10.95;70.12;100250.97;5047715;28;19924;-81
2024/03/09 06:07:35;;;;;;;;;;;;;;;10.94;70.43;100254.00;5059405;28;19920;-82
2024/03/09 06:10:27;;;;;;;;;;;;;;;10.99;70.04;100261.97;5042648;28;19917;-81
2024/03/09 06:13:19;;;;;;;;;;;;;;;10.97;70.03;100245.97;5045880;28;20385;-81
2024/03/09 06:16:14;;;;;;;;;;;;;;;10.97;69.84;100243.25;5058368;28;19917;-82
2024/03/09 06:19:06;;;;;;;;;;;;;;;10.96;70.42;100255.28;5047550;28;19916;-82
2024/03/09 06:21:58;;;;;;;;;;;;;;;10.96;70.27;100252.56;5059540;28;20390;-81
2024/03/09 06:24:51;;;;;;;;;;;;;;;10.92;70.51;100259.78;5057248;28;19916;-81
2024/03/09 06:27:41;;;;;;;;;;;;;;;10.93;70.73;100266.81;5059178;28;19920;-81
2024/03/09 06:30:30;;;;;;;;;;;;;;;10.92;70.65;100267.94;5086251;28;19916;-81
2024/03/09 06:33:19;;;;;;;;;;;;;;;10.92;70.92;100275.31;5091585;28;19920;-80
2024/03/09 06:36:12;;;;;;;;;;;;;;;10.91;70.60;100274.53;5064518;28;19916;-81
2024/03/09 06:39:04;;;;;;;;;;;;;;;10.90;70.52;100281.06;5094941;28;19916;-80
2024/03/09 06:41:53;;;;;;;;;;;;;;;10.85;70.72;100283.97;5072005;28;19917;-81
2024/03/09 06:44:45;;;;;;;;;;;;;;;10.91;70.82;100290.03;5084156;28;19920;-81
2024/03/09 06:47:38;;;;;;;;;;;;;;;10.91;71.02;100298.19;5100862;28;20289;-82
2024/03/09 06:50:31;;;;;;;;;;;;;;;10.92;71.04;100300.56;5106765;28;19919;-80
2024/03/09 06:53:24;;;;;;;;;;;;;;;10.98;70.60;100304.72;5088652;28;19916;-80
2024/03/09 06:56:16;;;;;;;;;;;;;;;10.98;70.59;100304.72;5100369;28;19920;-80
2024/03/09 06:59:08;;;;;;;;;;;;;;;10.73;71.35;100319.22;5077110;28;20396;-81
2024/03/09 07:02:00;;;;;;;;;;;;;;;10.63;72.03;100323.09;5073180;28;19920;-81
2024/03/09 07:04:52;;;;;;;;;;;;;;;10.66;72.02;100324.38;5054584;28;19920;-80
2024/03/09 07:07:44;;;;;;;;;;;;;;;10.64;72.20;100313.03;5062235;28;19920;-80
2024/03/09 07:10:36;;;;;;;;;;;;;;;10.69;72.13;100319.09;5073847;28;19916;-81
2024/03/09 07:13:25;;;;;;;;;;;;;;;10.73;71.86;100306.41;5081555;28;19920;-81
2024/03/09 07:16:18;;;;;;;;;;;;;;;10.74;71.64;100309.94;5083110;28;19920;-80
2024/03/09 07:19:10;;;;;;;;;;;;;;;10.78;72.16;100300.00;5085592;28;19919;-80
2024/03/09 07:22:02;;;;;;;;;;;;;;;10.75;71.76;100289.78;5097114;28;19920;-79
2024/03/09 07:24:54;;;;;;;;;;;;;;;10.81;71.37;100296.66;5094831;28;19916;-80
2024/03/09 07:27:46;;;;;;;;;;;;;;;10.79;71.04;100298.88;5106553;28;20409;-80
2024/03/09 07:30:35;;;;;;;;;;;;;;;10.82;71.12;100303.66;5106469;28;19924;-80
2024/03/09 07:33:25;;;;;;;;;;;;;;;10.88;71.25;100307.00;5080386;28;19920;-80
2024/03/09 07:36:17;;;;;;;;;;;;;;;10.44;72.12;100300.94;5083190;28;19920;-80
2024/03/09 07:39:07;;;;;;;;;;;;;;;10.36;73.45;100300.97;5077533;28;19916;-81
2024/03/09 07:41:59;;;;;;;;;;;;;;;10.21;73.45;100300.31;5093490;28;19916;-80
2024/03/09 07:44:51;;;;;;;;;;;;;;;10.01;74.03;100292.81;5096876;28;19916;-81
2024/03/09 07:47:46;;;;;;;;;;;;;;;10.09;74.15;100289.31;5081012;28;19920;-80
2024/03/09 07:50:38;;;;;;;;;;;;;;;10.15;73.55;100285.31;5093550;28;19920;-80
2024/03/09 07:53:30;;;;;;;;;;;;;;;10.43;73.16;100295.81;5077474;28;19920;-81
2024/03/09 07:56:21;;;;;;;;;;;;;;;10.56;72.87;100292.91;5061605;28;20397;-82
2024/03/09 07:59:13;;;;;;;;;;;;;;;10.55;72.16;100296.75;5085477;28;19924;-81
2024/03/09 08:02:05;;;;;;;;;;;;;;;10.61;73.07;100303.59;5095182;28;19916;-79
2024/03/09 08:04:57;;;;;;;;;;;;;;;10.77;72.69;100308.50;5078653;28;19920;-80
2024/03/09 08:07:49;;;;;;;;;;;;;;;11.53;71.34;100301.00;5096420;28;19949;-80
2024/03/09 08:10:41;;;;;;;;;;;;;;;11.50;69.05;100304.41;5079997;28;19916;-81
2024/03/09 08:13:33;;;;;;;;;;;;;;;11.35;68.82;100300.34;5077833;28;19920;-80
2024/03/09 08:16:27;;;;;;;;;;;;;;;11.25;69.73;100308.91;5095523;28;20397;-81
2024/03/09 08:19:19;;;;;;;;;;;;;;;11.51;68.40;100308.72;5092204;28;19920;-79
2024/03/09 08:22:08;;;;;;;;;;;;;;;11.63;67.83;100302.56;5082573;28;20308;-80
2024/03/09 08:25:00;;;;;;;;;;;;;;;11.42;67.92;100319.69;5094353;28;19920;-81
2024/03/09 08:27:52;;;;;;;;;;;;;;;11.32;69.00;100316.53;5078422;28;19920;-81
2024/03/09 08:30:45;;;;;;;;;;;;;;;11.37;68.77;100324.53;5081258;28;20389;-79
2024/03/09 08:33:37;;;;;;;;;;;;;;;11.77;67.24;100328.44;5079574;28;20396;-80
2024/03/09 08:36:26;;;;;;;;;;;;;;;12.05;66.14;100317.75;5066315;28;20297;-83
2024/03/09 08:39:18;;;;;;;;;;;;;;;12.23;65.39;100323.88;5077436;28;19920;-80
2024/03/09 08:42:13;;;;;;;;;;;;;;;12.38;65.32;100328.69;5084378;28;20303;-80
2024/03/09 08:45:04;;;;;;;;;;;;;;;12.41;64.59;100336.97;5081881;28;20297;-81
2024/03/09 08:47:55;;;;;;;;;;;;;;;12.47;64.61;100340.28;5080208;28;19919;-79
2024/03/09 08:50:47;;;;;;;;;;;;;;;12.44;64.75;100341.75;5097601;28;19916;-79
2024/03/09 08:53:39;;;;;;;;;;;;;;;12.68;63.77;100342.97;5087300;28;19920;-81
2024/03/09 08:56:33;;;;;;;;;;;;;;;12.61;63.79;100346.25;5073410;28;20325;-79
2024/03/09 08:59:25;;;;;;;;;;;;;;;12.67;63.40;100352.28;5070845;28;19920;-79
2024/03/09 09:02:18;;;;;;;;;;;;;;;12.59;64.01;100350.44;5060475;28;19916;-79
2024/03/09 09:05:13;;;;;;;;;;;;;;;12.70;63.57;100352.38;5063441;28;19919;-79
2024/03/09 09:08:02;;;;;;;;;;;;;;;12.89;63.38;100354.59;5068627;28;19924;-80
2024/03/09 09:10:55;;;;;;;;;;;;;;;13.00;63.41;100354.97;5065915;28;19916;-82
2024/03/09 09:13:45;;;;;;;;;;;;;;;12.59;63.51;100351.25;5071101;28;20412;-81
2024/03/09 09:16:35;;;;;;;;;;;;;;;12.34;63.91;100344.91;5084788;28;19916;-84
2024/03/09 09:19:27;;;;;;;;;;;;;;;12.22;65.13;100346.81;5099030;28;20396;-82
2024/03/09 09:22:19;;;;;;;;;;;;;;;12.04;66.11;100343.41;5096696;28;19916;-84
2024/03/09 09:25:12;;;;;;;;;;;;;;;11.91;66.39;100350.75;5103702;28;19916;-84
2024/03/09 09:28:01;;;;;;;;;;;;;;;11.78;66.75;100351.81;5103711;28;19920;-83
2024/03/09 09:30:53;;;;;;;;;;;;;;;11.71;66.51;100348.78;5088202;28;19915;-82
2024/03/09 09:33:45;;;;;;;;;;;;;;;11.70;66.77;100352.63;5096960;28;19920;-83
2024/03/09 09:36:34;;;;;;;;;;;;;;;11.90;66.95;100349.16;5097856;28;19919;-82
2024/03/09 09:39:32;;;;;;;;;;;;;;;11.99;66.70;100349.88;5100761;28;19916;-81
2024/03/09 09:42:27;;;;;;;;;;;;;;;11.85;67.86;100354.81;5098274;28;19916;-81
2024/03/09 09:45:18;;;;;;;;;;;;;;;11.91;66.74;100355.41;5096281;28;19920;-82
2024/03/09 09:48:09;;;;;;;;;;;;;;;11.99;67.28;100347.16;5110597;28;19920;-81
2024/03/09 09:51:02;;;;;;;;;;;;;;;11.80;68.13;100344.09;5083738;28;19916;-81
2024/03/09 09:53:52;;;;;;;;;;;;;;;11.81;68.96;100345.69;5096043;28;19916;-81
2024/03/09 09:56:41;;;;;;;;;;;;;;;11.80;68.49;100346.81;5099323;28;19916;-80
2024/03/09 09:59:34;;;;;;;;;;;;;;;11.79;68.67;100338.97;5082784;28;20380;-81
2024/03/09 10:02:23;;;;;;;;;;;;;;;11.81;68.32;100347.63;5096506;28;19916;-81
2024/03/09 10:05:14;;;;;;;;;;;;;;;11.82;67.80;100350.03;5085002;28;19915;-82
2024/03/09 10:08:29;;;;;;;;;;;;;;;11.83;69.06;100343.47;5082768;28;19920;-82
2024/03/09 10:11:24;;;;;;;;;;;;;;;11.85;68.97;100343.91;5088005;28;19920;-80
2024/03/09 10:14:26;;;;;;;;;;;;;;;11.97;68.57;100335.00;5072731;28;19924;-82
2024/03/09 10:17:19;;;;;;;;;;;;;;;11.98;67.54;100342.84;5095533;28;19916;-82
2024/03/09 10:20:12;;;;;;;;;;;;;;;11.96;67.65;100345.09;5099979;28;20443;-82
2024/03/09 10:23:01;;;;;;;;;;;;;;;11.97;67.58;100352.16;5104490;28;19920;-82
2024/03/09 10:26:04;;;;;;;;;;;;;;;12.23;67.81;100356.59;5089464;28;19916;-82
2024/03/09 10:28:58;;;;;;;;;;;;;;;12.30;67.61;100343.97;5067455;28;19920;-83
2024/03/09 10:31:50;;;;;;;;;;;;;;;12.20;67.17;100340.88;5104124;28;19916;-82
2024/03/09 10:34:43;;;;;;;;;;;;;;;12.10;66.81;100349.47;5097691;28;19920;-81
2024/03/09 10:37:35;;;;;;;;;;;;;;;12.09;67.36;100347.91;5062330;28;19916;-84
2024/03/09 10:40:25;;;;;;;;;;;;;;;11.99;67.61;100347.16;5099766;28;20471;-82
2024/03/09 10:43:17;;;;;;;;;;;;;;;11.95;67.72;100338.06;5088724;28;20320;-82
2024/03/09 10:46:10;;;;;;;;;;;;;;;11.98;68.36;100342.06;5087714;28;19916;-82
2024/03/09 10:49:03;;;;;;;;;;;;;;;11.94;68.20;100328.28;5067120;28;20389;-82
2024/03/09 10:52:00;;;;;;;;;;;;;;;11.95;67.66;100327.16;5091841;28;19928;-82
2024/03/09 10:54:59;;;;;;;;;;;;;;;11.97;67.54;100315.94;5079910;28;19920;-82
2024/03/09 10:57:53;;;;;;;;;;;;;;;11.99;68.53;100316.38;5087623;28;19920;-82
2024/03/09 11:00:49;;;;;;;;;;;;;;;12.07;67.89;100314.72;5099852;28;19916;-82
2024/03/09 11:03:39;;;;;;;;;;;;;;;11.99;68.43;100313.66;5071669;28;19916;-82
2024/03/09 11:06:32;;;;;;;;;;;;;;;11.98;68.44;100303.91;5085770;28;19920;-85
2024/03/09 11:09:29;;;;;;;;;;;;;;;12.03;69.08;100311.88;5093501;28;19924;-82
2024/03/09 11:12:16;;;;;;;;;;;;;;;12.04;69.01;100307.22;5073669;28;19920;-81
2024/03/09 11:15:08;;;;;;;;;;;;;;;12.02;68.71;100309.47;5064188;28;19920;-84
2024/03/09 11:18:00;;;;;;;;;;;;;;;11.96;68.36;100306.16;5079419;28;19916;-82
2024/03/09 11:20:52;;;;;;;;;;;;;;;11.93;69.14;100294.00;5075052;28;19917;-83
2024/03/09 11:23:44;;;;;;;;;;;;;;;11.93;68.98;100291.28;5081512;28;19916;-83
2024/03/09 11:26:38;;;;;;;;;;;;;;;11.94;69.45;100292.84;5099745;28;20377;-82
2024/03/09 11:29:38;;;;;;;;;;;;;;;11.99;69.52;100292.66;5099972;28;19920;-84
2024/03/09 11:32:30;;;;;;;;;;;;;;;12.03;70.42;100292.78;5070866;28;20119;-84
2024/03/09 11:35:29;;;;;;;;;;;;;;;12.03;69.06;100290.06;5094863;28;19920;-83
2024/03/09 11:38:23;;;;;;;;;;;;;;;12.00;69.22;100288.78;5093112;28;19920;-83
2024/03/09 11:41:23;;;;;;;;;;;;;;;12.11;69.37;100291.91;5095357;28;19916;-83
2024/03/09 11:44:17;;;;;;;;;;;;;;;12.23;68.66;100293.88;5094873;28;19916;-84
2024/03/09 11:47:07;;;;;;;;;;;;;;;12.14;68.65;100291.22;5072798;28;19916;-81
2024/03/09 11:49:59;;;;;;;;;;;;;;;12.23;69.58;100291.16;5093207;28;19924;-81
2024/03/09 11:52:48;;;;;;;;;;;;;;;12.14;70.16;100288.50;5083792;28;19920;-82
2024/03/09 11:55:40;;;;;;;;;;;;;;;12.13;70.30;100288.84;5093850;28;20317;-83
2024/03/09 11:58:31;;;;;;;;;;;;;;;12.00;69.30;100288.78;5085277;28;20377;-82
2024/03/09 12:01:24;;;;;;;;;;;;;;;12.10;69.85;100289.50;5082766;28;19999;-82
2024/03/09 12:04:16;;;;;;;;;;;;;;;12.21;69.92;100285.22;5093476;28;19916;-81
2024/03/09 12:07:08;;;;;;;;;;;;;;;12.25;69.93;100283.41;5083762;28;20368;-83
2024/03/09 12:10:01;;;;;;;;;;;;;;;12.31;69.80;100282.88;5094623;28;20592;-81
2024/03/09 12:12:51;;;;;;;;;;;;;;;12.54;69.83;100286.00;5092853;28;20313;-82
2024/03/09 12:15:44;;;;;;;;;;;;;;;12.71;69.58;100293.16;5075994;28;19923;-82
2024/03/09 12:18:37;;;;;;;;;;;;;;;12.74;67.10;100290.56;5090668;28;19920;-82
2024/03/09 12:21:29;;;;;;;;;;;;;;;12.89;66.89;100288.31;5085288;28;20285;-83
2024/03/09 12:24:24;;;;;;;;;;;;;;;12.93;67.38;100289.22;5091233;28;19920;-84
2024/03/09 12:27:15;;;;;;;;;;;;;;;12.90;66.52;100284.44;5091047;28;19917;-82
2024/03/09 12:30:08;;;;;;;;;;;;;;;13.07;66.35;100284.19;5091141;28;19920;-83
2024/03/09 12:33:00;;;;;;;;;;;;;;;13.20;66.69;100272.19;5092598;28;19920;-83
2024/03/09 12:35:56;;;;;;;;;;;;;;;13.22;66.31;100280.81;5094033;28;19916;-84
2024/03/09 12:38:47;;;;;;;;;;;;;;;13.31;66.12;100277.97;5098430;28;19916;-84
2024/03/09 12:41:39;;;;;;;;;;;;;;;13.37;64.86;100284.75;5085685;28;20331;-83
2024/03/09 12:44:35;;;;;;;;;;;;;;;13.37;65.48;100293.75;5092655;28;20412;-83
2024/03/09 12:47:28;;;;;;;;;;;;;;;13.31;64.65;100289.66;5095773;28;19916;-84
2024/03/09 12:50:20;;;;;;;;;;;;;;;13.33;64.51;100290.13;5079022;28;19920;-84
2024/03/09 12:53:10;;;;;;;;;;;;;;;13.32;64.70;100280.31;5071016;28;20370;-84
2024/03/09 12:55:56;;;;;;;;;;;;;;;13.39;66.01;100280.56;5073537;28;20369;-83
2024/03/09 12:58:50;;;;;;;;;;;;;;;13.48;65.32;100267.56;5085040;28;19916;-83
2024/03/09 13:01:44;;;;;;;;;;;;;;;13.57;64.55;100276.41;5078510;28;20381;-82
2024/03/09 13:04:37;;;;;;;;;;;;;;;13.69;63.08;100259.97;5093719;28;20462;-83
2024/03/09 13:07:29;;;;;;;;;;;;;;;13.85;64.57;100262.78;5082160;28;19916;-83
2024/03/09 13:10:21;;;;;;;;;;;;;;;14.01;64.33;100262.81;5097977;28;19928;-82
2024/03/09 13:13:14;;;;;;;;;;;;;;;14.14;63.74;100270.59;5091467;28;19916;-83
2024/03/09 13:16:09;;;;;;;;;;;;;;;14.18;64.03;100272.63;5071102;28;19916;-82
2024/03/09 13:19:09;;;;;;;;;;;;;;;14.07;62.11;100275.88;5097904;28;19916;-84
2024/03/09 13:21:58;;;;;;;;;;;;;;;14.03;63.03;100257.78;5075715;28;20193;-84
2024/03/09 13:24:47;;;;;;;;;;;;;;;13.99;63.45;100248.69;5073929;28;19916;-84
2024/03/09 13:27:37;;;;;;;;;;;;;;;14.06;63.62;100243.44;5095424;28;19920;-85
2024/03/09 13:30:27;;;;;;;;;;;;;;;14.08;62.44;100233.72;5095127;28;19920;-84
2024/03/09 13:33:18;;;;;;;;;;;;;;;14.15;62.85;100224.91;5105990;28;19916;-84
2024/03/09 13:36:11;;;;;;;;;;;;;;;14.17;62.75;100235.50;5083421;28;20151;-83
2024/03/09 13:39:03;;;;;;;;;;;;;;;14.13;62.45;100228.00;5093124;28;19915;-84
2024/03/09 13:41:58;;;;;;;;;;;;;;;14.06;63.29;100227.03;5113335;28;19924;-84
2024/03/09 13:44:47;;;;;;;;;;;;;;;14.11;62.44;100235.78;5094630;28;20393;-83
2024/03/09 13:47:43;;;;;;;;;;;;;;;14.06;62.20;100235.22;5075435;28;19916;-83
2024/03/09 13:50:34;;;;;;;;;;;;;;;14.10;62.29;100238.84;5083412;28;19920;-84
2024/03/09 13:53:26;;;;;;;;;;;;;;;14.11;61.73;100243.19;5064716;28;19917;-83
2024/03/09 13:56:21;;;;;;;;;;;;;;;14.14;61.94;100239.72;5102054;28;19915;-82
2024/03/09 13:59:16;;;;;;;;;;;;;;;14.22;61.70;100227.81;5095113;28;19920;-83
2024/03/09 14:02:08;;;;;;;;;;;;;;;14.25;60.79;100232.59;5081834;28;19916;-83
2024/03/09 14:05:00;;;;;;;;;;;;;;;14.27;61.37;100232.25;5086372;28;19916;-84
2024/03/09 14:07:49;;;;;;;;;;;;;;;14.32;61.38;100230.06;5068462;28;19920;-83
2024/03/09 14:10:45;;;;;;;;;;;;;;;14.31;60.41;100233.94;5081006;28;19924;-84
2024/03/09 14:13:37;;;;;;;;;;;;;;;14.29;60.95;100233.50;5084129;28;20309;-83
2024/03/09 14:16:26;;;;;;;;;;;;;;;14.18;58.41;100234.34;5075104;28;19916;-84
2024/03/09 14:19:21;;;;;;;;;;;;;;;14.21;58.78;100231.72;5082874;28;19916;-84
2024/03/09 14:22:13;;;;;;;;;;;;;;;14.20;59.06;100232.88;5087667;28;19916;-84
2024/03/09 14:25:03;;;;;;;;;;;;;;;14.17;58.77;100233.53;5088269;28;19920;-85
2024/03/09 14:27:52;;;;;;;;;;;;;;;14.25;58.71;100231.81;5088209;28;19935;-84
2024/03/09 14:30:45;;;;;;;;;;;;;;;14.22;58.15;100232.53;5088230;28;19924;-84
2024/03/09 14:33:35;;;;;;;;;;;;;;;14.25;58.24;100232.59;5064638;28;19917;-84
2024/03/09 14:36:24;;;;;;;;;;;;;;;14.18;57.55;100226.94;5102438;28;19916;-83
2024/03/09 14:39:16;;;;;;;;;;;;;;;14.11;57.04;100211.16;5076966;28;19916;-81
2024/03/09 14:42:06;;;;;;;;;;;;;;;14.23;56.92;100221.22;5081777;28;19920;-83